CYHY

Details ICAO CYHY (YHY)
Name HAY RIVER
Region Canada
Timezone America/Yellowknife (UTC-6.0)
Plans Departing 32
Arriving 20
Stats Elevation 543 ft / 166 m (AMSL)
Location 60.840621° -115.784243°
Runways 2
Magnetic Variation 16.842° E
Sunrise 2018-05-20 10:48:07 UTC / 2018-05-20 04:48:07 Local
Sunset 2018-05-21 04:34:06 UTC / 2018-05-20 22:34:06 Local
Advertisement - Login to hide

Runways

ID Width Length Bearing (true) Bearing (mag) Surface Threshold Offset Overrun Length
04 150 ft / 46 m 4,043 ft / 1,232 m 66.34° 49.50° Dirt 0 ft / 0 m 0 ft / 0 m
13 150 ft / 46 m 6,056 ft / 1,846 m 156.90° 140.06° Asphalt 0 ft / 0 m 0 ft / 0 m
22 150 ft / 46 m 4,043 ft / 1,232 m 246.36° 229.52° Dirt 0 ft / 0 m 0 ft / 0 m
31 150 ft / 46 m 6,056 ft / 1,846 m 336.92° 320.08° Asphalt 0 ft / 0 m 0 ft / 0 m

Map

Weather


0- 5 10 15 20 25 30 35+ Temperature / ° C

Clouds and Precipitation
Forecast for 2018-05-20 12:00 UTC. Updated an hour ago

Ground ~20,000 ft ~40,000 ft Winds

METAR

CYHY 201000Z 07007KT 15SM FEW120 SCT130 01/M01 A2985 RMK AC2AC2 SLP120

TAF

TAF CYHY 200538Z 2006/2018 VRB03KT P6SM SCT140 SCT210 BECMG 2007/2009 06007KT RMK NXT FCST BY 201200Z

Frequencies

Unicom 122.30 MHz MANDATORY FREQ
Approach 126.70 MHz YELLOWKNIFE RDO
Warning: Do not use this data for real-world aviation or navigation. No guarantee of current accuracy is given.